sensor_id;sensor_type;location;lat;lon;timestamp;temperature;humidity
34644;DHT22;26931;43.498;-1.506;2023-02-04T00:01:56;6.30;95.30
34644;DHT22;26931;43.498;-1.506;2023-02-04T00:04:22;6.10;95.20
34644;DHT22;26931;43.498;-1.506;2023-02-04T00:06:47;6.20;95.40
34644;DHT22;26931;43.498;-1.506;2023-02-04T00:09:13;6.20;95.40
34644;DHT22;26931;43.498;-1.506;2023-02-04T00:11:40;6.20;95.50
34644;DHT22;26931;43.498;-1.506;2023-02-04T00:14:06;6.20;95.50
34644;DHT22;26931;43.498;-1.506;2023-02-04T00:16:32;6.30;95.40
34644;DHT22;26931;43.498;-1.506;2023-02-04T00:18:58;6.30;95.40
34644;DHT22;26931;43.498;-1.506;2023-02-04T00:21:24;6.30;95.40
34644;DHT22;26931;43.498;-1.506;2023-02-04T00:23:50;6.40;95.40
34644;DHT22;26931;43.498;-1.506;2023-02-04T00:26:15;6.20;95.30
34644;DHT22;26931;43.498;-1.506;2023-02-04T00:28:41;6.20;95.40
34644;DHT22;26931;43.498;-1.506;2023-02-04T00:31:07;6.20;95.30
34644;DHT22;26931;43.498;-1.506;2023-02-04T00:33:33;6.10;95.40
34644;DHT22;26931;43.498;-1.506;2023-02-04T00:35:58;6.10;95.40
34644;DHT22;26931;43.498;-1.506;2023-02-04T00:38:24;6.20;95.40
34644;DHT22;26931;43.498;-1.506;2023-02-04T00:40:50;5.90;95.30
34644;DHT22;26931;43.498;-1.506;2023-02-04T00:43:16;6.10;95.50
34644;DHT22;26931;43.498;-1.506;2023-02-04T00:45:42;6.30;95.50
34644;DHT22;26931;43.498;-1.506;2023-02-04T00:48:07;6.00;95.40
34644;DHT22;26931;43.498;-1.506;2023-02-04T00:50:33;6.10;95.50
34644;DHT22;26931;43.498;-1.506;2023-02-04T00:53:04;6.10;95.50
34644;DHT22;26931;43.498;-1.506;2023-02-04T00:55:30;6.10;95.50
34644;DHT22;26931;43.498;-1.506;2023-02-04T00:57:56;6.10;95.50
34644;DHT22;26931;43.498;-1.506;2023-02-04T01:00:22;6.10;95.50
34644;DHT22;26931;43.498;-1.506;2023-02-04T01:02:47;6.30;95.60
34644;DHT22;26931;43.498;-1.506;2023-02-04T01:05:13;6.00;95.50
34644;DHT22;26931;43.498;-1.506;2023-02-04T01:07:39;6.00;95.60
34644;DHT22;26931;43.498;-1.506;2023-02-04T01:10:05;6.00;95.70
34644;DHT22;26931;43.498;-1.506;2023-02-04T01:12:31;6.00;95.70
34644;DHT22;26931;43.498;-1.506;2023-02-04T01:14:57;6.00;95.70
34644;DHT22;26931;43.498;-1.506;2023-02-04T01:17:23;6.00;95.70
34644;DHT22;26931;43.498;-1.506;2023-02-04T01:19:49;5.90;95.60
34644;DHT22;26931;43.498;-1.506;2023-02-04T01:22:15;6.00;95.70
34644;DHT22;26931;43.498;-1.506;2023-02-04T01:24:41;5.80;95.60
34644;DHT22;26931;43.498;-1.506;2023-02-04T01:27:06;5.80;95.50
34644;DHT22;26931;43.498;-1.506;2023-02-04T01:29:32;5.90;95.50
34644;DHT22;26931;43.498;-1.506;2023-02-04T01:31:58;5.90;95.50
34644;DHT22;26931;43.498;-1.506;2023-02-04T01:34:24;5.80;95.60
34644;DHT22;26931;43.498;-1.506;2023-02-04T01:36:50;5.80;95.50
34644;DHT22;26931;43.498;-1.506;2023-02-04T01:39:16;5.70;95.50
34644;DHT22;26931;43.498;-1.506;2023-02-04T01:41:42;5.60;95.60
34644;DHT22;26931;43.498;-1.506;2023-02-04T01:44:08;5.60;95.70
34644;DHT22;26931;43.498;-1.506;2023-02-04T01:46:33;5.60;95.70
34644;DHT22;26931;43.498;-1.506;2023-02-04T01:49:02;5.60;95.70
34644;DHT22;26931;43.498;-1.506;2023-02-04T01:51:28;5.60;95.70
34644;DHT22;26931;43.498;-1.506;2023-02-04T01:53:56;5.60;95.70
34644;DHT22;26931;43.498;-1.506;2023-02-04T01:56:23;5.50;95.80
34644;DHT22;26931;43.498;-1.506;2023-02-04T01:58:51;5.60;95.90
34644;DHT22;26931;43.498;-1.506;2023-02-04T02:04:01;5.50;95.90
34644;DHT22;26931;43.498;-1.506;2023-02-04T02:06:27;5.50;95.80
34644;DHT22;26931;43.498;-1.506;2023-02-04T02:08:54;5.70;95.80
34644;DHT22;26931;43.498;-1.506;2023-02-04T02:11:19;5.50;95.70
34644;DHT22;26931;43.498;-1.506;2023-02-04T02:13:45;5.50;95.70
34644;DHT22;26931;43.498;-1.506;2023-02-04T02:16:11;5.50;95.70
34644;DHT22;26931;43.498;-1.506;2023-02-04T02:18:37;5.40;95.70
34644;DHT22;26931;43.498;-1.506;2023-02-04T02:21:04;5.50;95.70
34644;DHT22;26931;43.498;-1.506;2023-02-04T02:23:46;5.50;95.60
34644;DHT22;26931;43.498;-1.506;2023-02-04T02:26:14;5.40;95.50
34644;DHT22;26931;43.498;-1.506;2023-02-04T02:28:40;5.50;95.60
34644;DHT22;26931;43.498;-1.506;2023-02-04T02:31:06;5.30;95.60
34644;DHT22;26931;43.498;-1.506;2023-02-04T02:33:32;5.20;95.60
34644;DHT22;26931;43.498;-1.506;2023-02-04T02:35:58;5.20;95.60
34644;DHT22;26931;43.498;-1.506;2023-02-04T02:38:24;5.10;95.50
34644;DHT22;26931;43.498;-1.506;2023-02-04T02:40:50;5.20;95.70
34644;DHT22;26931;43.498;-1.506;2023-02-04T02:43:17;5.20;95.60
34644;DHT22;26931;43.498;-1.506;2023-02-04T02:45:44;5.40;95.70
34644;DHT22;26931;43.498;-1.506;2023-02-04T02:48:13;5.40;95.70
34644;DHT22;26931;43.498;-1.506;2023-02-04T02:50:39;5.20;95.60
34644;DHT22;26931;43.498;-1.506;2023-02-04T02:53:12;5.10;95.50
34644;DHT22;26931;43.498;-1.506;2023-02-04T02:55:38;5.10;95.50
34644;DHT22;26931;43.498;-1.506;2023-02-04T02:58:04;5.00;95.60
34644;DHT22;26931;43.498;-1.506;2023-02-04T03:00:34;5.10;95.60
34644;DHT22;26931;43.498;-1.506;2023-02-04T03:03:04;5.20;95.50
34644;DHT22;26931;43.498;-1.506;2023-02-04T03:05:33;5.10;95.50
34644;DHT22;26931;43.498;-1.506;2023-02-04T03:08:01;5.10;95.50
34644;DHT22;26931;43.498;-1.506;2023-02-04T03:10:27;5.10;95.50
34644;DHT22;26931;43.498;-1.506;2023-02-04T03:12:53;5.00;95.50
34644;DHT22;26931;43.498;-1.506;2023-02-04T03:15:19;5.00;95.60
34644;DHT22;26931;43.498;-1.506;2023-02-04T03:17:45;4.90;95.50
34644;DHT22;26931;43.498;-1.506;2023-02-04T03:20:11;4.90;95.60
34644;DHT22;26931;43.498;-1.506;2023-02-04T03:22:38;4.90;95.60
34644;DHT22;26931;43.498;-1.506;2023-02-04T03:25:03;4.90;95.60
34644;DHT22;26931;43.498;-1.506;2023-02-04T03:27:29;4.90;95.60
34644;DHT22;26931;43.498;-1.506;2023-02-04T03:29:55;4.90;95.60
34644;DHT22;26931;43.498;-1.506;2023-02-04T03:32:21;4.90;95.80
34644;DHT22;26931;43.498;-1.506;2023-02-04T03:34:47;4.90;95.80
34644;DHT22;26931;43.498;-1.506;2023-02-04T03:37:13;4.90;95.60
34644;DHT22;26931;43.498;-1.506;2023-02-04T03:39:38;4.80;95.70
34644;DHT22;26931;43.498;-1.506;2023-02-04T03:42:04;4.80;95.70
34644;DHT22;26931;43.498;-1.506;2023-02-04T03:44:30;4.80;95.70
34644;DHT22;26931;43.498;-1.506;2023-02-04T03:46:56;4.80;95.70
34644;DHT22;26931;43.498;-1.506;2023-02-04T03:49:22;4.70;95.70
34644;DHT22;26931;43.498;-1.506;2023-02-04T03:51:48;4.80;95.90
34644;DHT22;26931;43.498;-1.506;2023-02-04T03:54:13;4.90;95.80
34644;DHT22;26931;43.498;-1.506;2023-02-04T03:56:39;4.90;95.70
34644;DHT22;26931;43.498;-1.506;2023-02-04T03:59:05;5.00;95.70
34644;DHT22;26931;43.498;-1.506;2023-02-04T04:01:31;4.60;95.60
34644;DHT22;26931;43.498;-1.506;2023-02-04T04:03:57;4.80;95.70
34644;DHT22;26931;43.498;-1.506;2023-02-04T04:06:22;4.70;95.70
34644;DHT22;26931;43.498;-1.506;2023-02-04T04:08:48;4.70;95.70
34644;DHT22;26931;43.498;-1.506;2023-02-04T04:11:14;4.70;95.80
34644;DHT22;26931;43.498;-1.506;2023-02-04T04:13:40;4.90;95.70
34644;DHT22;26931;43.498;-1.506;2023-02-04T04:16:06;4.80;95.60
34644;DHT22;26931;43.498;-1.506;2023-02-04T04:18:33;4.70;95.60
34644;DHT22;26931;43.498;-1.506;2023-02-04T04:20:59;4.70;95.60
34644;DHT22;26931;43.498;-1.506;2023-02-04T04:23:25;4.90;95.60
34644;DHT22;26931;43.498;-1.506;2023-02-04T04:25:51;4.70;95.50
34644;DHT22;26931;43.498;-1.506;2023-02-04T04:28:17;4.60;95.40
34644;DHT22;26931;43.498;-1.506;2023-02-04T04:30:42;4.60;95.50
34644;DHT22;26931;43.498;-1.506;2023-02-04T04:33:08;4.50;95.40
34644;DHT22;26931;43.498;-1.506;2023-02-04T04:35:34;4.40;95.50
34644;DHT22;26931;43.498;-1.506;2023-02-04T04:38:00;4.70;95.60
34644;DHT22;26931;43.498;-1.506;2023-02-04T04:40:26;4.50;95.60
34644;DHT22;26931;43.498;-1.506;2023-02-04T04:42:52;4.50;95.60
34644;DHT22;26931;43.498;-1.506;2023-02-04T04:45:20;4.50;95.50
34644;DHT22;26931;43.498;-1.506;2023-02-04T04:47:46;4.70;95.70
34644;DHT22;26931;43.498;-1.506;2023-02-04T04:50:12;4.40;95.60
34644;DHT22;26931;43.498;-1.506;2023-02-04T04:52:38;4.40;95.60
34644;DHT22;26931;43.498;-1.506;2023-02-04T04:55:03;4.40;95.60
34644;DHT22;26931;43.498;-1.506;2023-02-04T04:57:30;4.30;95.60
34644;DHT22;26931;43.498;-1.506;2023-02-04T04:59:56;4.20;95.70
34644;DHT22;26931;43.498;-1.506;2023-02-04T05:02:21;4.10;95.70
34644;DHT22;26931;43.498;-1.506;2023-02-04T05:04:47;4.20;95.70
34644;DHT22;26931;43.498;-1.506;2023-02-04T05:07:13;4.20;95.80
34644;DHT22;26931;43.498;-1.506;2023-02-04T05:09:39;4.20;95.70
34644;DHT22;26931;43.498;-1.506;2023-02-04T05:12:05;4.30;95.70
34644;DHT22;26931;43.498;-1.506;2023-02-04T05:14:30;4.20;95.60
34644;DHT22;26931;43.498;-1.506;2023-02-04T05:16:56;4.20;95.60
34644;DHT22;26931;43.498;-1.506;2023-02-04T05:19:22;4.20;95.80
34644;DHT22;26931;43.498;-1.506;2023-02-04T05:21:48;4.30;95.70
34644;DHT22;26931;43.498;-1.506;2023-02-04T05:24:14;4.30;95.70
34644;DHT22;26931;43.498;-1.506;2023-02-04T05:26:39;4.30;95.60
34644;DHT22;26931;43.498;-1.506;2023-02-04T05:29:05;4.40;95.60
34644;DHT22;26931;43.498;-1.506;2023-02-04T05:31:31;4.40;95.60
34644;DHT22;26931;43.498;-1.506;2023-02-04T05:33:57;4.40;95.80
34644;DHT22;26931;43.498;-1.506;2023-02-04T05:36:23;4.40;95.50
34644;DHT22;26931;43.498;-1.506;2023-02-04T05:38:49;4.20;95.40
34644;DHT22;26931;43.498;-1.506;2023-02-04T05:41:14;4.30;95.40
34644;DHT22;26931;43.498;-1.506;2023-02-04T05:43:41;4.40;95.40
34644;DHT22;26931;43.498;-1.506;2023-02-04T05:46:07;4.40;95.50
34644;DHT22;26931;43.498;-1.506;2023-02-04T05:48:33;4.40;95.40
34644;DHT22;26931;43.498;-1.506;2023-02-04T05:50:59;4.50;95.40
34644;DHT22;26931;43.498;-1.506;2023-02-04T05:53:24;4.20;95.30
34644;DHT22;26931;43.498;-1.506;2023-02-04T05:55:50;4.10;95.50
34644;DHT22;26931;43.498;-1.506;2023-02-04T05:58:16;4.10;95.60
34644;DHT22;26931;43.498;-1.506;2023-02-04T06:00:42;4.20;95.60
34644;DHT22;26931;43.498;-1.506;2023-02-04T06:03:07;4.20;95.50
34644;DHT22;26931;43.498;-1.506;2023-02-04T06:05:33;4.30;95.50
34644;DHT22;26931;43.498;-1.506;2023-02-04T06:07:59;4.30;95.50
34644;DHT22;26931;43.498;-1.506;2023-02-04T06:10:25;4.50;95.50
34644;DHT22;26931;43.498;-1.506;2023-02-04T06:12:50;4.20;95.50
34644;DHT22;26931;43.498;-1.506;2023-02-04T06:15:16;4.30;95.40
34644;DHT22;26931;43.498;-1.506;2023-02-04T06:17:42;4.10;95.40
34644;DHT22;26931;43.498;-1.506;2023-02-04T06:20:09;4.20;95.50
34644;DHT22;26931;43.498;-1.506;2023-02-04T06:22:35;4.20;95.60
34644;DHT22;26931;43.498;-1.506;2023-02-04T06:25:01;4.40;95.60
34644;DHT22;26931;43.498;-1.506;2023-02-04T06:27:27;4.20;95.50
34644;DHT22;26931;43.498;-1.506;2023-02-04T06:29:52;4.20;95.70
34644;DHT22;26931;43.498;-1.506;2023-02-04T06:32:19;4.10;95.50
34644;DHT22;26931;43.498;-1.506;2023-02-04T06:34:45;4.00;95.60
34644;DHT22;26931;43.498;-1.506;2023-02-04T06:37:11;4.10;95.50
34644;DHT22;26931;43.498;-1.506;2023-02-04T06:39:37;4.00;95.60
34644;DHT22;26931;43.498;-1.506;2023-02-04T06:42:03;4.00;95.60
34644;DHT22;26931;43.498;-1.506;2023-02-04T06:44:29;4.00;95.60
34644;DHT22;26931;43.498;-1.506;2023-02-04T06:46:55;3.80;95.40
34644;DHT22;26931;43.498;-1.506;2023-02-04T06:49:21;4.00;95.60
34644;DHT22;26931;43.498;-1.506;2023-02-04T06:51:46;4.00;95.70
34644;DHT22;26931;43.498;-1.506;2023-02-04T06:54:13;4.00;95.60
34644;DHT22;26931;43.498;-1.506;2023-02-04T06:56:39;4.00;95.50
34644;DHT22;26931;43.498;-1.506;2023-02-04T06:59:05;4.20;95.50
34644;DHT22;26931;43.498;-1.506;2023-02-04T07:01:31;4.10;95.40
34644;DHT22;26931;43.498;-1.506;2023-02-04T07:03:56;4.10;95.40
34644;DHT22;26931;43.498;-1.506;2023-02-04T07:06:22;4.00;95.40
34644;DHT22;26931;43.498;-1.506;2023-02-04T07:08:48;4.00;95.50
34644;DHT22;26931;43.498;-1.506;2023-02-04T07:11:14;4.10;95.50
34644;DHT22;26931;43.498;-1.506;2023-02-04T07:13:40;4.00;95.40
34644;DHT22;26931;43.498;-1.506;2023-02-04T07:16:06;4.10;95.50
34644;DHT22;26931;43.498;-1.506;2023-02-04T07:18:32;4.10;95.50
34644;DHT22;26931;43.498;-1.506;2023-02-04T07:20:58;4.20;95.50
34644;DHT22;26931;43.498;-1.506;2023-02-04T07:23:24;4.20;95.40
34644;DHT22;26931;43.498;-1.506;2023-02-04T07:25:52;4.10;95.40
34644;DHT22;26931;43.498;-1.506;2023-02-04T07:28:18;4.20;95.70
34644;DHT22;26931;43.498;-1.506;2023-02-04T07:30:44;4.20;95.40
34644;DHT22;26931;43.498;-1.506;2023-02-04T07:33:10;4.20;95.40
34644;DHT22;26931;43.498;-1.506;2023-02-04T07:35:36;4.10;95.40
34644;DHT22;26931;43.498;-1.506;2023-02-04T07:38:05;4.10;95.50
34644;DHT22;26931;43.498;-1.506;2023-02-04T07:40:31;4.10;95.50
34644;DHT22;26931;43.498;-1.506;2023-02-04T07:42:57;4.10;95.40
34644;DHT22;26931;43.498;-1.506;2023-02-04T07:45:22;4.20;95.50
34644;DHT22;26931;43.498;-1.506;2023-02-04T07:47:48;4.10;95.40
34644;DHT22;26931;43.498;-1.506;2023-02-04T07:50:13;4.10;95.50
34644;DHT22;26931;43.498;-1.506;2023-02-04T07:52:40;4.10;95.50
34644;DHT22;26931;43.498;-1.506;2023-02-04T07:55:06;4.00;95.60
34644;DHT22;26931;43.498;-1.506;2023-02-04T07:57:33;4.10;95.70
34644;DHT22;26931;43.498;-1.506;2023-02-04T07:59:59;4.10;95.70
34644;DHT22;26931;43.498;-1.506;2023-02-04T08:02:25;4.20;95.60
34644;DHT22;26931;43.498;-1.506;2023-02-04T08:04:51;4.20;95.60
34644;DHT22;26931;43.498;-1.506;2023-02-04T08:07:17;4.20;95.60
34644;DHT22;26931;43.498;-1.506;2023-02-04T08:09:42;4.20;95.70
34644;DHT22;26931;43.498;-1.506;2023-02-04T08:12:08;4.30;95.70
34644;DHT22;26931;43.498;-1.506;2023-02-04T08:14:34;4.20;95.70
34644;DHT22;26931;43.498;-1.506;2023-02-04T08:17:00;4.20;95.80
34644;DHT22;26931;43.498;-1.506;2023-02-04T08:19:25;4.20;95.90
34644;DHT22;26931;43.498;-1.506;2023-02-04T08:21:51;4.20;96.00
34644;DHT22;26931;43.498;-1.506;2023-02-04T08:24:18;4.40;96.20
34644;DHT22;26931;43.498;-1.506;2023-02-04T08:26:44;4.30;96.10
34644;DHT22;26931;43.498;-1.506;2023-02-04T08:29:09;4.30;96.20
34644;DHT22;26931;43.498;-1.506;2023-02-04T08:31:36;4.40;96.20
34644;DHT22;26931;43.498;-1.506;2023-02-04T08:34:02;4.40;96.30
34644;DHT22;26931;43.498;-1.506;2023-02-04T08:36:28;4.50;96.40
34644;DHT22;26931;43.498;-1.506;2023-02-04T08:38:53;4.60;96.40
34644;DHT22;26931;43.498;-1.506;2023-02-04T08:41:19;4.60;96.40
34644;DHT22;26931;43.498;-1.506;2023-02-04T08:43:45;4.60;96.50
34644;DHT22;26931;43.498;-1.506;2023-02-04T08:46:11;4.90;96.60
34644;DHT22;26931;43.498;-1.506;2023-02-04T08:48:37;4.70;96.60
34644;DHT22;26931;43.498;-1.506;2023-02-04T08:51:03;4.70;96.60
34644;DHT22;26931;43.498;-1.506;2023-02-04T08:53:29;4.80;96.70
34644;DHT22;26931;43.498;-1.506;2023-02-04T08:55:54;4.90;96.80
34644;DHT22;26931;43.498;-1.506;2023-02-04T08:58:20;5.00;96.80
34644;DHT22;26931;43.498;-1.506;2023-02-04T09:00:46;5.00;97.10
34644;DHT22;26931;43.498;-1.506;2023-02-04T09:03:12;5.10;96.80
34644;DHT22;26931;43.498;-1.506;2023-02-04T09:05:37;5.20;96.70
34644;DHT22;26931;43.498;-1.506;2023-02-04T09:08:03;5.30;96.70
34644;DHT22;26931;43.498;-1.506;2023-02-04T09:10:29;5.20;96.70
34644;DHT22;26931;43.498;-1.506;2023-02-04T09:12:55;5.30;96.70
34644;DHT22;26931;43.498;-1.506;2023-02-04T09:15:21;5.20;96.70
34644;DHT22;26931;43.498;-1.506;2023-02-04T09:17:48;5.50;96.80
34644;DHT22;26931;43.498;-1.506;2023-02-04T09:20:14;5.60;97.00
34644;DHT22;26931;43.498;-1.506;2023-02-04T09:22:40;5.60;96.60
34644;DHT22;26931;43.498;-1.506;2023-02-04T09:25:06;5.70;96.60
34644;DHT22;26931;43.498;-1.506;2023-02-04T09:27:32;5.60;96.60
34644;DHT22;26931;43.498;-1.506;2023-02-04T09:29:58;5.60;96.50
34644;DHT22;26931;43.498;-1.506;2023-02-04T09:32:24;5.70;96.50
34644;DHT22;26931;43.498;-1.506;2023-02-04T09:34:50;5.60;96.40
34644;DHT22;26931;43.498;-1.506;2023-02-04T09:37:16;5.80;96.40
34644;DHT22;26931;43.498;-1.506;2023-02-04T09:39:42;5.80;96.30
34644;DHT22;26931;43.498;-1.506;2023-02-04T09:42:09;5.80;96.20
34644;DHT22;26931;43.498;-1.506;2023-02-04T09:44:36;5.90;96.20
34644;DHT22;26931;43.498;-1.506;2023-02-04T09:47:02;6.00;96.20
34644;DHT22;26931;43.498;-1.506;2023-02-04T09:49:28;6.00;96.20
34644;DHT22;26931;43.498;-1.506;2023-02-04T09:51:54;6.00;96.10
34644;DHT22;26931;43.498;-1.506;2023-02-04T09:54:20;6.00;96.00
34644;DHT22;26931;43.498;-1.506;2023-02-04T09:56:47;6.10;96.10
34644;DHT22;26931;43.498;-1.506;2023-02-04T09:59:14;6.10;95.90
34644;DHT22;26931;43.498;-1.506;2023-02-04T10:01:41;6.10;95.90
34644;DHT22;26931;43.498;-1.506;2023-02-04T10:04:08;6.10;95.90
34644;DHT22;26931;43.498;-1.506;2023-02-04T10:06:35;6.20;96.00
34644;DHT22;26931;43.498;-1.506;2023-02-04T10:09:01;6.20;95.90
34644;DHT22;26931;43.498;-1.506;2023-02-04T10:11:27;6.30;96.00
34644;DHT22;26931;43.498;-1.506;2023-02-04T10:13:56;6.40;96.00
34644;DHT22;26931;43.498;-1.506;2023-02-04T10:16:27;6.40;96.00
34644;DHT22;26931;43.498;-1.506;2023-02-04T10:18:55;6.40;96.00
34644;DHT22;26931;43.498;-1.506;2023-02-04T10:21:23;6.50;96.00
34644;DHT22;26931;43.498;-1.506;2023-02-04T10:23:50;6.50;96.00
34644;DHT22;26931;43.498;-1.506;2023-02-04T10:26:18;6.60;96.10
34644;DHT22;26931;43.498;-1.506;2023-02-04T10:28:45;6.70;96.10
34644;DHT22;26931;43.498;-1.506;2023-02-04T10:31:27;6.70;96.10
34644;DHT22;26931;43.498;-1.506;2023-02-04T10:34:03;6.70;96.10
34644;DHT22;26931;43.498;-1.506;2023-02-04T10:36:29;6.90;96.10
34644;DHT22;26931;43.498;-1.506;2023-02-04T10:38:58;7.00;96.10
34644;DHT22;26931;43.498;-1.506;2023-02-04T10:41:24;7.00;96.20
34644;DHT22;26931;43.498;-1.506;2023-02-04T10:43:54;7.30;96.20
34644;DHT22;26931;43.498;-1.506;2023-02-04T10:46:28;7.10;96.20
34644;DHT22;26931;43.498;-1.506;2023-02-04T10:48:54;7.20;96.20
34644;DHT22;26931;43.498;-1.506;2023-02-04T10:51:20;7.30;96.20
34644;DHT22;26931;43.498;-1.506;2023-02-04T10:53:45;7.30;96.20
34644;DHT22;26931;43.498;-1.506;2023-02-04T10:56:30;7.40;96.20
34644;DHT22;26931;43.498;-1.506;2023-02-04T10:58:55;7.30;96.20
34644;DHT22;26931;43.498;-1.506;2023-02-04T11:01:21;7.50;96.30
34644;DHT22;26931;43.498;-1.506;2023-02-04T11:03:47;7.60;96.30
34644;DHT22;26931;43.498;-1.506;2023-02-04T11:06:14;7.80;96.40
34644;DHT22;26931;43.498;-1.506;2023-02-04T11:08:42;7.70;96.40
34644;DHT22;26931;43.498;-1.506;2023-02-04T11:11:11;7.80;96.50
34644;DHT22;26931;43.498;-1.506;2023-02-04T11:18:44;8.00;96.50
34644;DHT22;26931;43.498;-1.506;2023-02-04T11:21:21;8.10;96.50
34644;DHT22;26931;43.498;-1.506;2023-02-04T11:23:48;8.20;96.60
34644;DHT22;26931;43.498;-1.506;2023-02-04T11:26:14;8.30;96.50
34644;DHT22;26931;43.498;-1.506;2023-02-04T11:28:46;8.30;96.60
34644;DHT22;26931;43.498;-1.506;2023-02-04T11:33:44;8.40;96.60
34644;DHT22;26931;43.498;-1.506;2023-02-04T11:36:11;8.40;96.60
34644;DHT22;26931;43.498;-1.506;2023-02-04T11:38:39;8.50;96.60
34644;DHT22;26931;43.498;-1.506;2023-02-04T11:41:11;8.60;96.60
34644;DHT22;26931;43.498;-1.506;2023-02-04T11:43:39;8.60;96.60
34644;DHT22;26931;43.498;-1.506;2023-02-04T11:46:15;8.70;96.60
34644;DHT22;26931;43.498;-1.506;2023-02-04T11:48:41;8.70;96.60
34644;DHT22;26931;43.498;-1.506;2023-02-04T11:51:11;8.80;96.60
34644;DHT22;26931;43.498;-1.506;2023-02-04T11:53:37;8.90;96.60
34644;DHT22;26931;43.498;-1.506;2023-02-04T11:56:03;9.00;96.60
34644;DHT22;26931;43.498;-1.506;2023-02-04T11:58:29;9.00;96.60
34644;DHT22;26931;43.498;-1.506;2023-02-04T12:00:55;9.00;96.70
34644;DHT22;26931;43.498;-1.506;2023-02-04T12:03:25;9.20;96.80
34644;DHT22;26931;43.498;-1.506;2023-02-04T12:05:51;9.10;96.80
34644;DHT22;26931;43.498;-1.506;2023-02-04T12:10:47;9.20;96.80
34644;DHT22;26931;43.498;-1.506;2023-02-04T12:13:16;9.30;96.90
34644;DHT22;26931;43.498;-1.506;2023-02-04T12:15:42;9.30;96.90
34644;DHT22;26931;43.498;-1.506;2023-02-04T12:18:16;9.40;97.00
34644;DHT22;26931;43.498;-1.506;2023-02-04T12:20:42;9.40;97.00
34644;DHT22;26931;43.498;-1.506;2023-02-04T12:23:08;9.40;97.00
34644;DHT22;26931;43.498;-1.506;2023-02-04T12:25:33;9.30;97.00
34644;DHT22;26931;43.498;-1.506;2023-02-04T12:27:59;9.40;97.00
34644;DHT22;26931;43.498;-1.506;2023-02-04T12:30:25;9.30;96.90
34644;DHT22;26931;43.498;-1.506;2023-02-04T12:32:51;9.40;96.80
34644;DHT22;26931;43.498;-1.506;2023-02-04T12:35:17;9.40;96.70
34644;DHT22;26931;43.498;-1.506;2023-02-04T12:37:43;9.40;96.60
34644;DHT22;26931;43.498;-1.506;2023-02-04T12:40:16;9.40;96.50
34644;DHT22;26931;43.498;-1.506;2023-02-04T12:42:42;9.40;96.40
34644;DHT22;26931;43.498;-1.506;2023-02-04T12:45:08;9.40;96.30
34644;DHT22;26931;43.498;-1.506;2023-02-04T12:47:35;9.40;96.20
34644;DHT22;26931;43.498;-1.506;2023-02-04T12:50:02;9.40;96.00
34644;DHT22;26931;43.498;-1.506;2023-02-04T12:52:28;9.40;95.90
34644;DHT22;26931;43.498;-1.506;2023-02-04T12:54:53;9.60;95.80
34644;DHT22;26931;43.498;-1.506;2023-02-04T12:57:19;9.50;95.70
34644;DHT22;26931;43.498;-1.506;2023-02-04T12:59:45;9.40;95.70
34644;DHT22;26931;43.498;-1.506;2023-02-04T13:02:11;9.50;95.70
34644;DHT22;26931;43.498;-1.506;2023-02-04T13:04:37;9.50;95.60
34644;DHT22;26931;43.498;-1.506;2023-02-04T13:07:04;9.70;95.50
34644;DHT22;26931;43.498;-1.506;2023-02-04T13:09:32;9.60;95.40
34644;DHT22;26931;43.498;-1.506;2023-02-04T13:11:58;9.60;95.70
34644;DHT22;26931;43.498;-1.506;2023-02-04T13:14:24;9.60;95.20
34644;DHT22;26931;43.498;-1.506;2023-02-04T13:16:49;9.60;95.10
34644;DHT22;26931;43.498;-1.506;2023-02-04T13:19:15;9.60;95.10
34644;DHT22;26931;43.498;-1.506;2023-02-04T13:21:41;9.60;95.00
34644;DHT22;26931;43.498;-1.506;2023-02-04T13:24:06;9.50;94.90
34644;DHT22;26931;43.498;-1.506;2023-02-04T13:26:32;9.70;94.80
34644;DHT22;26931;43.498;-1.506;2023-02-04T13:28:58;9.60;94.60
34644;DHT22;26931;43.498;-1.506;2023-02-04T13:31:24;9.60;94.30
34644;DHT22;26931;43.498;-1.506;2023-02-04T13:33:49;9.80;94.60
34644;DHT22;26931;43.498;-1.506;2023-02-04T13:36:15;9.60;94.10
34644;DHT22;26931;43.498;-1.506;2023-02-04T13:38:41;9.60;94.00
34644;DHT22;26931;43.498;-1.506;2023-02-04T13:41:07;9.60;94.00
34644;DHT22;26931;43.498;-1.506;2023-02-04T13:43:33;9.60;93.90
34644;DHT22;26931;43.498;-1.506;2023-02-04T13:45:58;9.80;93.90
34644;DHT22;26931;43.498;-1.506;2023-02-04T13:48:27;9.70;93.80
34644;DHT22;26931;43.498;-1.506;2023-02-04T13:50:52;9.70;93.80
34644;DHT22;26931;43.498;-1.506;2023-02-04T13:53:18;9.80;93.80
34644;DHT22;26931;43.498;-1.506;2023-02-04T13:55:43;9.80;93.60
34644;DHT22;26931;43.498;-1.506;2023-02-04T13:58:09;9.80;93.60
34644;DHT22;26931;43.498;-1.506;2023-02-04T14:00:35;9.80;93.50
34644;DHT22;26931;43.498;-1.506;2023-02-04T14:03:00;9.80;93.40
34644;DHT22;26931;43.498;-1.506;2023-02-04T14:05:26;9.80;93.30
34644;DHT22;26931;43.498;-1.506;2023-02-04T14:07:52;9.80;93.20
34644;DHT22;26931;43.498;-1.506;2023-02-04T14:10:17;9.80;93.20
34644;DHT22;26931;43.498;-1.506;2023-02-04T14:12:43;9.70;93.10
34644;DHT22;26931;43.498;-1.506;2023-02-04T14:15:09;9.60;93.00
34644;DHT22;26931;43.498;-1.506;2023-02-04T14:17:34;9.80;92.90
34644;DHT22;26931;43.498;-1.506;2023-02-04T14:20:00;9.70;92.80
34644;DHT22;26931;43.498;-1.506;2023-02-04T14:22:26;9.70;92.80
34644;DHT22;26931;43.498;-1.506;2023-02-04T14:24:51;9.70;92.70
34644;DHT22;26931;43.498;-1.506;2023-02-04T14:27:17;9.80;92.70
34644;DHT22;26931;43.498;-1.506;2023-02-04T14:29:43;9.70;92.70
34644;DHT22;26931;43.498;-1.506;2023-02-04T14:32:09;9.80;92.70
34644;DHT22;26931;43.498;-1.506;2023-02-04T14:34:34;9.80;92.60
34644;DHT22;26931;43.498;-1.506;2023-02-04T14:37:00;9.90;92.60
34644;DHT22;26931;43.498;-1.506;2023-02-04T14:39:26;9.90;92.50
34644;DHT22;26931;43.498;-1.506;2023-02-04T14:41:51;9.90;92.50
34644;DHT22;26931;43.498;-1.506;2023-02-04T14:44:17;9.90;92.40
34644;DHT22;26931;43.498;-1.506;2023-02-04T14:46:45;9.90;92.50
34644;DHT22;26931;43.498;-1.506;2023-02-04T14:49:13;9.80;92.40
34644;DHT22;26931;43.498;-1.506;2023-02-04T14:51:39;9.90;92.40
34644;DHT22;26931;43.498;-1.506;2023-02-04T14:54:04;9.90;92.40
34644;DHT22;26931;43.498;-1.506;2023-02-04T14:56:30;9.90;92.30
34644;DHT22;26931;43.498;-1.506;2023-02-04T14:58:55;9.90;92.30
34644;DHT22;26931;43.498;-1.506;2023-02-04T15:01:21;9.90;92.20
34644;DHT22;26931;43.498;-1.506;2023-02-04T15:03:47;9.90;92.20
34644;DHT22;26931;43.498;-1.506;2023-02-04T15:06:12;10.00;92.20
34644;DHT22;26931;43.498;-1.506;2023-02-04T15:08:38;10.00;92.20
34644;DHT22;26931;43.498;-1.506;2023-02-04T15:11:04;10.00;92.20
34644;DHT22;26931;43.498;-1.506;2023-02-04T15:13:30;10.00;92.20
34644;DHT22;26931;43.498;-1.506;2023-02-04T15:15:56;10.10;92.20
34644;DHT22;26931;43.498;-1.506;2023-02-04T15:18:21;10.10;92.20
34644;DHT22;26931;43.498;-1.506;2023-02-04T15:20:47;10.10;92.20
34644;DHT22;26931;43.498;-1.506;2023-02-04T15:23:13;10.10;92.20
34644;DHT22;26931;43.498;-1.506;2023-02-04T15:25:39;9.90;92.10
34644;DHT22;26931;43.498;-1.506;2023-02-04T15:28:05;10.00;92.10
34644;DHT22;26931;43.498;-1.506;2023-02-04T15:30:31;10.00;92.00
34644;DHT22;26931;43.498;-1.506;2023-02-04T15:32:57;9.80;91.90
34644;DHT22;26931;43.498;-1.506;2023-02-04T15:35:23;10.00;92.00
34644;DHT22;26931;43.498;-1.506;2023-02-04T15:37:48;10.00;92.00